Ohyamamaru — JG5507 — position and weather

sailwx.info

Track history (hours):
 
Tides and Currents Weather Stations Pressure Air Temp Water Temp Dewpoint Dewpoint Depression Visibility Wind Speed Wind Dir Waves Ship Positions

Ohyamamaru

Last reported at 2017-Nov-25 00:00 UTC. Time now 2017-Nov-25 00:19 UTC.
Position N 35°38' E 139°45'.

Length 36 m; draft 4.4 m.

Type: Tug. MMSI: 431001114.

Date/timePositionNaut miles runAvg speedWind from/ knotsBaromVisibWave heightAir tempDewpointWater temp
2017-Nov-25 00:00N 35°38' E 139°45'2 3.5
2017-Nov-24 23:30N 35°37' E 139°46'0 0.7
2017-Nov-24 23:00N 35°36' E 139°47'3 5.5
2017-Nov-24 22:29N 35°34' E 139°49'2 4.8
2017-Nov-24 22:00N 35°36' E 139°47'3 5.1
2017-Nov-24 21:30N 35°38' E 139°45'0 0.0
2017-Nov-24 21:00N 35°38' E 139°45'0 0.0
2017-Nov-24 20:31N 35°38' E 139°45'0 0.0
2017-Nov-24 20:00N 35°38' E 139°45'0 0.0
2017-Nov-24 19:31N 35°38' E 139°45'0 0.0
2017-Nov-24 19:00N 35°38' E 139°45'0 0.0
2017-Nov-24 18:30N 35°38' E 139°45'0 0.0
2017-Nov-24 18:01N 35°38' E 139°45'0 0.0
2017-Nov-24 17:30N 35°38' E 139°45'0 0.0
2017-Nov-24 17:01N 35°38' E 139°45'0 0.0
2017-Nov-24 16:30N 35°38' E 139°45'0 0.0
2017-Nov-24 16:00N 35°38' E 139°45'0 0.0
2017-Nov-24 15:30N 35°38' E 139°45'0 0.0
2017-Nov-24 15:00N 35°38' E 139°45'0 0.0
2017-Nov-24 14:30N 35°38' E 139°45'0 0.0
2017-Nov-24 14:01N 35°38' E 139°45'0 0.0
2017-Nov-24 13:31N 35°38' E 139°45'0 0.0
2017-Nov-24 13:00N 35°38' E 139°45'0 0.0
2017-Nov-24 12:30N 35°38' E 139°45'0 0.0
2017-Nov-24 12:00N 35°38' E 139°45'0 0.0
2017-Nov-24 11:30N 35°38' E 139°45'0 0.0
2017-Nov-24 11:00N 35°38' E 139°45'0 0.0
2017-Nov-24 10:30N 35°38' E 139°45'0 0.0
2017-Nov-24 10:00N 35°38' E 139°45'0 0.0
2017-Nov-24 09:30N 35°38' E 139°45'0 0.0
2017-Nov-24 09:00N 35°38' E 139°45'0 0.0
2017-Nov-24 08:30N 35°38' E 139°45'0 0.0
2017-Nov-24 08:01N 35°38' E 139°45'0 0.0
2017-Nov-24 07:31N 35°38' E 139°45'0 0.0
2017-Nov-24 07:00N 35°38' E 139°45'0 0.0
2017-Nov-24 06:30N 35°38' E 139°45'0 0.0
2017-Nov-24 06:00N 35°38' E 139°45'0 0.0
2017-Nov-24 05:30N 35°38' E 139°45'0 0.0
2017-Nov-24 05:00N 35°38' E 139°45'0 0.0
2017-Nov-24 04:31N 35°38' E 139°45'0 0.0
2017-Nov-24 04:01N 35°38' E 139°45'0 0.0
2017-Nov-24 03:31N 35°38' E 139°45'0 0.0
2017-Nov-24 03:01N 35°38' E 139°45'0 0.0
2017-Nov-24 02:30N 35°38' E 139°45'0 0.0
2017-Nov-24 02:00N 35°38' E 139°45'0 0.0
2017-Nov-24 01:30N 35°38' E 139°45'0 0.0
2017-Nov-24 01:00N 35°38' E 139°45'0 0.0
2017-Nov-24 00:30N 35°38' E 139°45'0 0.0
2017-Nov-24 00:00N 35°38' E 139°45'0 0.0
2017-Nov-23 23:30N 35°38' E 139°45'0 0.0
2017-Nov-23 23:00N 35°38' E 139°45'0 0.0
2017-Nov-23 22:30N 35°38' E 139°45'0 0.0
2017-Nov-23 22:00N 35°38' E 139°45'0 0.0
2017-Nov-23 21:31N 35°38' E 139°45'0 0.0
2017-Nov-23 21:01N 35°38' E 139°45'0 0.0
2017-Nov-23 20:30N 35°38' E 139°45'0 0.0
2017-Nov-23 20:00N 35°38' E 139°45'0 0.0
2017-Nov-23 19:30N 35°38' E 139°45'0 0.0
2017-Nov-23 19:00N 35°38' E 139°45'0 0.0
2017-Nov-23 18:30N 35°38' E 139°45'0 0.0
2017-Nov-23 18:00N 35°38' E 139°45'0 0.0
2017-Nov-23 17:30N 35°38' E 139°45'0 0.0
2017-Nov-23 17:00N 35°38' E 139°45'0 0.0
2017-Nov-23 16:30N 35°38' E 139°45'0 0.0
2017-Nov-23 16:00N 35°38' E 139°45'0 0.0
2017-Nov-23 15:30N 35°38' E 139°45'0 0.0
2017-Nov-23 15:00N 35°38' E 139°45'1 1.1
2017-Nov-23 14:30N 35°38' E 139°46'0 1.0
2017-Nov-23 14:00N 35°38' E 139°45'2 4.0
2017-Nov-23 13:30N 35°36' E 139°47'0 0.4
2017-Nov-23 13:00N 35°36' E 139°47'4 7.0
2017-Nov-23 12:30N 35°34' E 139°50'3 5.3
2017-Nov-23 12:00N 35°32' E 139°53'1 1.2
2017-Nov-23 11:30N 35°32' E 139°53'611.5
2017-Nov-23 11:00N 35°35' E 139°47'3 6.8
2017-Nov-23 10:31N 35°38' E 139°45'1 1.8
2017-Nov-23 10:00N 35°37' E 139°46'1 3.0
2017-Nov-23 09:31N 35°36' E 139°47'2 3.6
2017-Nov-23 09:00N 35°35' E 139°48'1 1.6
2017-Nov-23 08:30N 35°35' E 139°47'4 7.2
2017-Nov-23 08:00N 35°38' E 139°45'0 0.0
2017-Nov-23 07:30N 35°38' E 139°45'0 0.0
2017-Nov-23 07:00N 35°38' E 139°45'0 0.0
2017-Nov-23 06:30N 35°38' E 139°45'0 0.0
2017-Nov-23 06:00N 35°38' E 139°45'0 0.0
2017-Nov-23 05:31N 35°38' E 139°45'0 0.0
2017-Nov-23 05:00N 35°38' E 139°45'0 0.0
2017-Nov-23 04:31N 35°38' E 139°45'0 0.0
2017-Nov-23 04:00N 35°38' E 139°45'0 0.0
2017-Nov-23 03:30N 35°38' E 139°45'0 0.0
2017-Nov-23 03:00N 35°38' E 139°45'0 0.0
2017-Nov-23 02:31N 35°38' E 139°45'0 0.0
2017-Nov-23 02:01N 35°38' E 139°45'0 0.0
2017-Nov-23 01:30N 35°38' E 139°45'0 0.0
2017-Nov-23 01:00N 35°38' E 139°45'0 0.0
2017-Nov-23 00:30N 35°38' E 139°45'0 0.1
2017-Nov-23 00:00N 35°38' E 139°45'2 3.9
2017-Nov-22 23:30N 35°37' E 139°47'2 3.1
2017-Nov-22 23:00N 35°35' E 139°47'2 4.2
2017-Nov-22 22:30N 35°33' E 139°49'3 6.2
2017-Nov-22 22:00N 35°36' E 139°47'2 5.0
2017-Nov-22 21:30N 35°38' E 139°45'0 0.0
2017-Nov-22 21:00N 35°38' E 139°45'0 0.0
2017-Nov-22 20:30N 35°38' E 139°45'0 0.0
2017-Nov-22 20:00N 35°38' E 139°45'0 0.0
2017-Nov-22 19:31N 35°38' E 139°45'  
2017-Nov-20 00:30N 35°29' E 139°39'0 0.0
2017-Nov-20 00:00N 35°29' E 139°39'0 0.0
2017-Nov-19 23:30N 35°29' E 139°39'0 0.0
2017-Nov-19 23:01N 35°29' E 139°39'0 0.0
2017-Nov-19 22:31N 35°29' E 139°39'0 0.0
2017-Nov-19 22:00N 35°29' E 139°39'0 0.0
2017-Nov-19 21:31N 35°29' E 139°39'0 0.0
2017-Nov-19 21:01N 35°29' E 139°39'0 0.0
2017-Nov-19 20:30N 35°29' E 139°39'0 0.0
2017-Nov-19 20:01N 35°29' E 139°39'0 0.0
2017-Nov-19 19:30N 35°29' E 139°39'0 0.0
2017-Nov-19 19:01N 35°29' E 139°39'0 0.0
2017-Nov-19 18:31N 35°29' E 139°39'0 0.0
2017-Nov-19 18:01N 35°29' E 139°39'0 0.0
2017-Nov-19 17:31N 35°29' E 139°39'0 0.0
2017-Nov-19 17:01N 35°29' E 139°39'0 0.0
2017-Nov-19 16:31N 35°29' E 139°39'0 0.0
2017-Nov-19 16:00N 35°29' E 139°39'0 0.0
2017-Nov-19 15:31N 35°29' E 139°39'0 0.0
2017-Nov-19 15:01N 35°29' E 139°39'0 0.0
2017-Nov-19 14:31N 35°29' E 139°39'0 0.0
2017-Nov-19 14:01N 35°29' E 139°39'0 0.0
2017-Nov-19 13:30N 35°29' E 139°39'0 0.0
2017-Nov-19 13:00N 35°29' E 139°39'0 0.0
2017-Nov-19 12:30N 35°29' E 139°39'0 0.0
2017-Nov-19 12:01N 35°29' E 139°39'0 0.0
2017-Nov-19 11:31N 35°29' E 139°39'0 0.0
2017-Nov-19 11:01N 35°29' E 139°39'0 0.0
2017-Nov-19 10:31N 35°29' E 139°39'0 0.0
2017-Nov-19 10:01N 35°29' E 139°39'0 0.0
2017-Nov-19 09:30N 35°29' E 139°39'0 0.0
2017-Nov-19 09:00N 35°29' E 139°39'0 0.0
2017-Nov-19 08:31N 35°29' E 139°39'0 0.0
2017-Nov-19 08:01N 35°29' E 139°39'0 0.0
2017-Nov-19 07:31N 35°29' E 139°39'0 0.0
2017-Nov-19 07:00N 35°29' E 139°39'0 0.0
2017-Nov-19 06:31N 35°29' E 139°39'0 0.0
2017-Nov-19 06:01N 35°29' E 139°39'0 0.0
2017-Nov-19 05:30N 35°29' E 139°39'0 0.0
2017-Nov-19 05:01N 35°29' E 139°39'0 0.0
2017-Nov-19 04:30N 35°29' E 139°39'0 0.0
2017-Nov-19 04:01N 35°29' E 139°39'0 0.0
2017-Nov-19 03:30N 35°29' E 139°39'0 0.0
2017-Nov-19 03:00N 35°29' E 139°39'0 0.0
2017-Nov-19 02:30N 35°29' E 139°39'0 0.0
2017-Nov-19 02:00N 35°29' E 139°39'0 0.0
2017-Nov-19 01:30N 35°29' E 139°39'0 0.0
2017-Nov-19 01:00N 35°29' E 139°39'0 0.0
2017-Nov-19 00:30N 35°29' E 139°39'0 0.0
2017-Nov-19 00:01N 35°29' E 139°39'0 0.0
2017-Nov-18 23:31N 35°29' E 139°39'0 0.0
2017-Nov-18 23:01N 35°29' E 139°39'0 0.0
2017-Nov-18 22:31N 35°29' E 139°39'0 0.0
2017-Nov-18 22:00N 35°29' E 139°39'0 0.0
2017-Nov-18 21:30N 35°29' E 139°39'0 0.0
2017-Nov-18 21:00N 35°29' E 139°39'0 0.0
2017-Nov-18 20:30N 35°29' E 139°39'0 0.0
2017-Nov-18 20:01N 35°29' E 139°39'0 0.0
2017-Nov-18 19:31N 35°29' E 139°39'0 0.0
2017-Nov-18 19:01N 35°29' E 139°39'0 0.0
2017-Nov-18 18:31N 35°29' E 139°39'0 0.0
2017-Nov-18 18:01N 35°29' E 139°39'0 0.0
2017-Nov-18 17:30N 35°29' E 139°39'0 0.0
2017-Nov-18 17:00N 35°29' E 139°39'0 0.0
2017-Nov-18 16:30N 35°29' E 139°39'0 0.0
2017-Nov-18 16:01N 35°29' E 139°39'0 0.0
2017-Nov-18 15:31N 35°29' E 139°39'0 0.0
2017-Nov-18 15:01N 35°29' E 139°39'0 0.0
2017-Nov-18 14:31N 35°29' E 139°39'0 0.0
2017-Nov-18 14:00N 35°29' E 139°39'0 0.0
2017-Nov-18 13:30N 35°29' E 139°39'0 0.0
2017-Nov-18 13:01N 35°29' E 139°39'0 0.0
2017-Nov-18 12:30N 35°29' E 139°39'0 0.0
2017-Nov-18 12:00N 35°29' E 139°39'0 0.0
2017-Nov-18 11:30N 35°29' E 139°39'0 0.0
2017-Nov-18 11:00N 35°29' E 139°39'0 0.0
2017-Nov-18 10:31N 35°29' E 139°39'0 0.0
2017-Nov-18 10:01N 35°29' E 139°39'0 0.0
2017-Nov-18 09:31N 35°29' E 139°39'0 0.0
2017-Nov-18 09:01N 35°29' E 139°39'0 0.0
2017-Nov-18 08:31N 35°29' E 139°39'0 0.0
2017-Nov-18 08:01N 35°29' E 139°39'0 0.0
2017-Nov-18 07:31N 35°29' E 139°39'0 0.0
2017-Nov-18 07:01N 35°29' E 139°39'0 0.0
2017-Nov-18 06:31N 35°29' E 139°39'0 0.0
2017-Nov-18 06:01N 35°29' E 139°39'0 0.0
2017-Nov-18 05:31N 35°29' E 139°39'0 0.0
2017-Nov-18 05:00N 35°29' E 139°39'0 0.0
2017-Nov-18 04:31N 35°29' E 139°39'0 0.0
2017-Nov-18 04:00N 35°29' E 139°39'0 0.0
2017-Nov-18 03:31N 35°29' E 139°39'0 0.0
2017-Nov-18 03:01N 35°29' E 139°39'0 0.0
2017-Nov-18 02:30N 35°29' E 139°39'0 0.0
2017-Nov-18 02:01N 35°29' E 139°39'0 0.0
2017-Nov-18 01:31N 35°29' E 139°39'0 0.0
2017-Nov-18 01:00N 35°29' E 139°39'0 0.0
2017-Nov-18 00:31N 35°29' E 139°39'0 0.0
2017-Nov-18 00:01N 35°29' E 139°39'0 0.0
2017-Nov-17 23:31N 35°29' E 139°39'0 0.0
2017-Nov-17 23:01N 35°29' E 139°39'0 0.0
2017-Nov-17 22:31N 35°29' E 139°39'0 0.0
2017-Nov-17 22:00N 35°29' E 139°39'0 0.0
2017-Nov-17 21:30N 35°29' E 139°39'0 0.0
2017-Nov-17 21:01N 35°29' E 139°39'0 0.0
2017-Nov-17 20:31N 35°29' E 139°39'0 0.0
2017-Nov-17 20:00N 35°29' E 139°39'0 0.0
2017-Nov-17 19:30N 35°29' E 139°39'0 0.0
2017-Nov-17 19:01N 35°29' E 139°39'0 0.0
2017-Nov-17 18:30N 35°29' E 139°39'0 0.0
2017-Nov-17 18:00N 35°29' E 139°39'0 0.0
2017-Nov-17 17:30N 35°29' E 139°39'0 0.0
2017-Nov-17 17:01N 35°29' E 139°39'0 0.0
2017-Nov-17 16:31N 35°29' E 139°39'0 0.0
2017-Nov-17 16:00N 35°29' E 139°39'0 0.0
2017-Nov-17 15:30N 35°29' E 139°39'0 0.0
2017-Nov-17 15:01N 35°29' E 139°39'0 0.0
2017-Nov-17 14:31N 35°29' E 139°39'0 0.0
2017-Nov-17 14:00N 35°29' E 139°39'0 0.0
2017-Nov-17 13:31N 35°29' E 139°39'0 0.0
2017-Nov-17 13:00N 35°29' E 139°39'0 0.0
2017-Nov-17 12:30N 35°29' E 139°39'0 0.0
2017-Nov-17 12:01N 35°29' E 139°39'0 0.0
2017-Nov-17 11:30N 35°29' E 139°39'0 0.0
2017-Nov-17 11:00N 35°29' E 139°39'0 0.0
2017-Nov-17 10:30N 35°29' E 139°39'0 0.0
2017-Nov-17 10:00N 35°29' E 139°39'0 0.0
2017-Nov-17 09:31N 35°29' E 139°39'0 0.0
2017-Nov-17 09:01N 35°29' E 139°39'0 0.0
2017-Nov-17 08:30N 35°29' E 139°39'0 0.0
2017-Nov-17 08:00N 35°29' E 139°39'0 0.0
2017-Nov-17 07:31N 35°29' E 139°39'0 0.0
2017-Nov-17 07:00N 35°29' E 139°39'0 0.0
2017-Nov-17 06:31N 35°29' E 139°39'0 0.0
2017-Nov-17 06:00N 35°29' E 139°39'0 0.0
2017-Nov-17 05:30N 35°29' E 139°39'0 0.0
2017-Nov-17 05:01N 35°29' E 139°39'0 0.0
2017-Nov-17 04:30N 35°29' E 139°39'0 0.0
2017-Nov-17 04:01N 35°29' E 139°39'0 0.0
2017-Nov-17 03:31N 35°29' E 139°39'0 0.0
2017-Nov-17 03:01N 35°29' E 139°39'0 0.0
2017-Nov-17 02:30N 35°29' E 139°39'0 0.0
2017-Nov-17 02:01N 35°29' E 139°39'0 0.0
2017-Nov-17 01:31N 35°29' E 139°39'0 0.0
2017-Nov-17 01:01N 35°29' E 139°39'0 0.0
2017-Nov-17 00:31N 35°29' E 139°39'0 0.0
2017-Nov-17 00:00N 35°29' E 139°39'0 0.0
2017-Nov-16 23:31N 35°29' E 139°39'0 0.0
2017-Nov-16 23:00N 35°29' E 139°39'0 0.0
2017-Nov-16 22:31N 35°29' E 139°39'0 0.0
2017-Nov-16 22:01N 35°29' E 139°39'0 0.0
2017-Nov-16 21:30N 35°29' E 139°39'0 0.0
2017-Nov-16 21:00N 35°29' E 139°39'0 0.0
2017-Nov-16 20:31N 35°29' E 139°39'0 0.0
2017-Nov-16 20:00N 35°29' E 139°39'0 0.0
2017-Nov-16 19:30N 35°29' E 139°39'0 0.0
2017-Nov-16 19:00N 35°29' E 139°39'0 0.0
2017-Nov-16 18:31N 35°29' E 139°39'0 0.0
2017-Nov-16 18:01N 35°29' E 139°39'0 0.0
2017-Nov-16 17:31N 35°29' E 139°39'0 0.0
2017-Nov-16 17:01N 35°29' E 139°39'0 0.0
2017-Nov-16 16:31N 35°29' E 139°39'0 0.0
2017-Nov-16 16:00N 35°29' E 139°39'0 0.0
2017-Nov-16 15:31N 35°29' E 139°39'0 0.0
2017-Nov-16 15:01N 35°29' E 139°39'0 0.0
2017-Nov-16 14:30N 35°29' E 139°39'0 0.0
2017-Nov-16 14:01N 35°29' E 139°39'0 0.0
2017-Nov-16 13:31N 35°29' E 139°39'0 0.0
2017-Nov-16 13:01N 35°29' E 139°39'0 0.0
2017-Nov-16 12:30N 35°29' E 139°39'0 0.0
2017-Nov-16 12:00N 35°29' E 139°39'0 0.0
2017-Nov-16 11:31N 35°29' E 139°39'0 0.0
2017-Nov-16 11:01N 35°29' E 139°39'0 0.0
2017-Nov-16 10:30N 35°29' E 139°39'0 0.0
2017-Nov-16 10:01N 35°29' E 139°39'0 0.0
2017-Nov-16 09:30N 35°29' E 139°39'0 0.0
2017-Nov-16 09:01N 35°29' E 139°39'0 0.0
2017-Nov-16 08:30N 35°29' E 139°39'0 0.0
2017-Nov-16 08:00N 35°29' E 139°39'0 0.0
2017-Nov-16 07:30N 35°29' E 139°39'0 0.0
2017-Nov-16 07:01N 35°29' E 139°39'0 0.0
2017-Nov-16 06:30N 35°29' E 139°39'0 0.0
2017-Nov-16 06:01N 35°29' E 139°39'0 0.0
2017-Nov-16 05:30N 35°29' E 139°39'0 0.0
2017-Nov-16 05:00N 35°29' E 139°39'0 0.0
2017-Nov-16 04:30N 35°29' E 139°39'0 0.0
2017-Nov-16 04:01N 35°29' E 139°39'0 0.0
2017-Nov-16 03:31N 35°29' E 139°39'0 0.0
2017-Nov-16 03:00N 35°29' E 139°39'0 0.0
2017-Nov-16 02:31N 35°29' E 139°39'0 0.0
2017-Nov-16 02:01N 35°29' E 139°39'0 0.0
2017-Nov-16 01:31N 35°29' E 139°39'0 0.0
2017-Nov-16 01:00N 35°29' E 139°39'0 0.0
2017-Nov-16 00:31N 35°29' E 139°39'0 0.0
2017-Nov-16 00:01N 35°29' E 139°39'0 0.0
2017-Nov-15 23:30N 35°29' E 139°39'0 0.0
2017-Nov-15 23:01N 35°29' E 139°39'0 0.0
2017-Nov-15 22:30N 35°29' E 139°39'0 0.0
2017-Nov-15 22:01N 35°29' E 139°39'0 0.0
2017-Nov-15 21:31N 35°29' E 139°39'0 0.0
2017-Nov-15 21:01N 35°29' E 139°39'0 0.0
2017-Nov-15 20:31N 35°29' E 139°39'0 0.0
2017-Nov-15 20:01N 35°29' E 139°39'0 0.0
2017-Nov-15 19:30N 35°29' E 139°39'0 0.0
2017-Nov-15 19:01N 35°29' E 139°39'0 0.0
2017-Nov-15 18:31N 35°29' E 139°39'0 0.0
2017-Nov-15 18:01N 35°29' E 139°39'0 0.0
2017-Nov-15 17:30N 35°29' E 139°39'0 0.0
2017-Nov-15 17:01N 35°29' E 139°39'0 0.0
2017-Nov-15 16:31N 35°29' E 139°39'0 0.0
2017-Nov-15 16:00N 35°29' E 139°39'0 0.0
2017-Nov-15 15:31N 35°29' E 139°39'0 0.0
2017-Nov-15 15:00N 35°29' E 139°39'0 0.0
2017-Nov-15 14:31N 35°29' E 139°39'0 0.0
2017-Nov-15 14:00N 35°29' E 139°39'0 0.0
2017-Nov-15 13:31N 35°29' E 139°39'0 0.0
2017-Nov-15 13:01N 35°29' E 139°39'0 0.0
2017-Nov-15 12:31N 35°29' E 139°39'0 0.0
2017-Nov-15 12:01N 35°29' E 139°39'0 0.0
2017-Nov-15 11:30N 35°29' E 139°39'0 0.0
2017-Nov-15 11:00N 35°29' E 139°39'0 0.0
2017-Nov-15 10:30N 35°29' E 139°39'0 0.0
2017-Nov-15 10:00N 35°29' E 139°39'0 0.0
2017-Nov-15 09:31N 35°29' E 139°39'0 0.0
2017-Nov-15 09:01N 35°29' E 139°39'0 0.0
2017-Nov-15 08:31N 35°29' E 139°39'0 0.0
2017-Nov-15 08:00N 35°29' E 139°39'0 0.0
2017-Nov-15 07:30N 35°29' E 139°39'0 0.0
2017-Nov-15 07:01N 35°29' E 139°39'0 0.0
2017-Nov-15 06:31N 35°29' E 139°39'0 0.0
2017-Nov-15 06:01N 35°29' E 139°39'0 0.0
2017-Nov-15 05:31N 35°29' E 139°39'0 0.0
2017-Nov-15 05:01N 35°29' E 139°39'0 0.0
2017-Nov-15 04:30N 35°29' E 139°39'0 0.0
2017-Nov-15 04:01N 35°29' E 139°39'0 0.0
2017-Nov-15 03:31N 35°29' E 139°39'0 0.0
2017-Nov-15 03:00N 35°29' E 139°39'0 0.0
2017-Nov-15 02:30N 35°29' E 139°39'0 0.0
2017-Nov-15 02:00N 35°29' E 139°39'0 0.0
2017-Nov-15 01:31N 35°29' E 139°39'0 0.0
2017-Nov-15 01:01N 35°29' E 139°39'0 0.0
2017-Nov-15 00:31N 35°29' E 139°39'0 0.0
2017-Nov-15 00:01N 35°29' E 139°39'  
Track history (hours):
 
Tides and Currents Weather Stations Pressure Air Temp Water Temp Dewpoint Dewpoint Depression Visibility Wind Speed Wind Dir Waves Ship Positions

Ohyamamaru

Last reported at 2017-Nov-25 00:00 UTC. Time now 2017-Nov-25 00:19 UTC.
Position N 35°38' E 139°45'.

Length 36 m; draft 4.4 m.

Type: Tug. MMSI: 431001114.

Date/timePositionNaut miles runAvg speedWind from/ knotsBaromVisibWave heightAir tempDewpointWater temp
2017-Nov-25 00:00N 35°38' E 139°45'2 3.5
2017-Nov-24 23:30N 35°37' E 139°46'0 0.7
2017-Nov-24 23:00N 35°36' E 139°47'3 5.5
2017-Nov-24 22:29N 35°34' E 139°49'2 4.8
2017-Nov-24 22:00N 35°36' E 139°47'3 5.1
2017-Nov-24 21:30N 35°38' E 139°45'0 0.0
2017-Nov-24 21:00N 35°38' E 139°45'0 0.0
2017-Nov-24 20:31N 35°38' E 139°45'0 0.0
2017-Nov-24 20:00N 35°38' E 139°45'0 0.0
2017-Nov-24 19:31N 35°38' E 139°45'0 0.0
2017-Nov-24 19:00N 35°38' E 139°45'0 0.0
2017-Nov-24 18:30N 35°38' E 139°45'0 0.0
2017-Nov-24 18:01N 35°38' E 139°45'0 0.0
2017-Nov-24 17:30N 35°38' E 139°45'0 0.0
2017-Nov-24 17:01N 35°38' E 139°45'0 0.0
2017-Nov-24 16:30N 35°38' E 139°45'0 0.0
2017-Nov-24 16:00N 35°38' E 139°45'0 0.0
2017-Nov-24 15:30N 35°38' E 139°45'0 0.0
2017-Nov-24 15:00N 35°38' E 139°45'0 0.0
2017-Nov-24 14:30N 35°38' E 139°45'0 0.0
2017-Nov-24 14:01N 35°38' E 139°45'0 0.0
2017-Nov-24 13:31N 35°38' E 139°45'0 0.0
2017-Nov-24 13:00N 35°38' E 139°45'0 0.0
2017-Nov-24 12:30N 35°38' E 139°45'0 0.0
2017-Nov-24 12:00N 35°38' E 139°45'0 0.0
2017-Nov-24 11:30N 35°38' E 139°45'0 0.0
2017-Nov-24 11:00N 35°38' E 139°45'0 0.0
2017-Nov-24 10:30N 35°38' E 139°45'0 0.0
2017-Nov-24 10:00N 35°38' E 139°45'0 0.0
2017-Nov-24 09:30N 35°38' E 139°45'0 0.0
2017-Nov-24 09:00N 35°38' E 139°45'0 0.0
2017-Nov-24 08:30N 35°38' E 139°45'0 0.0
2017-Nov-24 08:01N 35°38' E 139°45'0 0.0
2017-Nov-24 07:31N 35°38' E 139°45'0 0.0
2017-Nov-24 07:00N 35°38' E 139°45'0 0.0
2017-Nov-24 06:30N 35°38' E 139°45'0 0.0
2017-Nov-24 06:00N 35°38' E 139°45'0 0.0
2017-Nov-24 05:30N 35°38' E 139°45'0 0.0
2017-Nov-24 05:00N 35°38' E 139°45'0 0.0
2017-Nov-24 04:31N 35°38' E 139°45'0 0.0
2017-Nov-24 04:01N 35°38' E 139°45'0 0.0
2017-Nov-24 03:31N 35°38' E 139°45'0 0.0
2017-Nov-24 03:01N 35°38' E 139°45'0 0.0
2017-Nov-24 02:30N 35°38' E 139°45'0 0.0
2017-Nov-24 02:00N 35°38' E 139°45'0 0.0
2017-Nov-24 01:30N 35°38' E 139°45'0 0.0
2017-Nov-24 01:00N 35°38' E 139°45'0 0.0
2017-Nov-24 00:30N 35°38' E 139°45'0 0.0
2017-Nov-24 00:00N 35°38' E 139°45'0 0.0
2017-Nov-23 23:30N 35°38' E 139°45'0 0.0
2017-Nov-23 23:00N 35°38' E 139°45'0 0.0
2017-Nov-23 22:30N 35°38' E 139°45'0 0.0
2017-Nov-23 22:00N 35°38' E 139°45'0 0.0
2017-Nov-23 21:31N 35°38' E 139°45'0 0.0
2017-Nov-23 21:01N 35°38' E 139°45'0 0.0
2017-Nov-23 20:30N 35°38' E 139°45'0 0.0
2017-Nov-23 20:00N 35°38' E 139°45'0 0.0
2017-Nov-23 19:30N 35°38' E 139°45'0 0.0
2017-Nov-23 19:00N 35°38' E 139°45'0 0.0
2017-Nov-23 18:30N 35°38' E 139°45'0 0.0
2017-Nov-23 18:00N 35°38' E 139°45'0 0.0
2017-Nov-23 17:30N 35°38' E 139°45'0 0.0
2017-Nov-23 17:00N 35°38' E 139°45'0 0.0
2017-Nov-23 16:30N 35°38' E 139°45'0 0.0
2017-Nov-23 16:00N 35°38' E 139°45'0 0.0
2017-Nov-23 15:30N 35°38' E 139°45'0 0.0
2017-Nov-23 15:00N 35°38' E 139°45'1 1.1
2017-Nov-23 14:30N 35°38' E 139°46'0 1.0
2017-Nov-23 14:00N 35°38' E 139°45'2 4.0
2017-Nov-23 13:30N 35°36' E 139°47'0 0.4
2017-Nov-23 13:00N 35°36' E 139°47'4 7.0
2017-Nov-23 12:30N 35°34' E 139°50'3 5.3
2017-Nov-23 12:00N 35°32' E 139°53'1 1.2
2017-Nov-23 11:30N 35°32' E 139°53'611.5
2017-Nov-23 11:00N 35°35' E 139°47'3 6.8
2017-Nov-23 10:31N 35°38' E 139°45'1 1.8
2017-Nov-23 10:00N 35°37' E 139°46'1 3.0
2017-Nov-23 09:31N 35°36' E 139°47'2 3.6
2017-Nov-23 09:00N 35°35' E 139°48'1 1.6
2017-Nov-23 08:30N 35°35' E 139°47'4 7.2
2017-Nov-23 08:00N 35°38' E 139°45'0 0.0
2017-Nov-23 07:30N 35°38' E 139°45'0 0.0
2017-Nov-23 07:00N 35°38' E 139°45'0 0.0
2017-Nov-23 06:30N 35°38' E 139°45'0 0.0
2017-Nov-23 06:00N 35°38' E 139°45'0 0.0
2017-Nov-23 05:31N 35°38' E 139°45'0 0.0
2017-Nov-23 05:00N 35°38' E 139°45'0 0.0
2017-Nov-23 04:31N 35°38' E 139°45'0 0.0
2017-Nov-23 04:00N 35°38' E 139°45'0 0.0
2017-Nov-23 03:30N 35°38' E 139°45'0 0.0
2017-Nov-23 03:00N 35°38' E 139°45'0 0.0
2017-Nov-23 02:31N 35°38' E 139°45'0 0.0
2017-Nov-23 02:01N 35°38' E 139°45'0 0.0
2017-Nov-23 01:30N 35°38' E 139°45'0 0.0
2017-Nov-23 01:00N 35°38' E 139°45'0 0.0
2017-Nov-23 00:30N 35°38' E 139°45'0 0.1
2017-Nov-23 00:00N 35°38' E 139°45'2 3.9
2017-Nov-22 23:30N 35°37' E 139°47'2 3.1
2017-Nov-22 23:00N 35°35' E 139°47'2 4.2
2017-Nov-22 22:30N 35°33' E 139°49'3 6.2
2017-Nov-22 22:00N 35°36' E 139°47'2 5.0
2017-Nov-22 21:30N 35°38' E 139°45'0 0.0
2017-Nov-22 21:00N 35°38' E 139°45'0 0.0
2017-Nov-22 20:30N 35°38' E 139°45'0 0.0
2017-Nov-22 20:00N 35°38' E 139°45'0 0.0
2017-Nov-22 19:31N 35°38' E 139°45'  
2017-Nov-20 00:30N 35°29' E 139°39'0 0.0
2017-Nov-20 00:00N 35°29' E 139°39'0 0.0
2017-Nov-19 23:30N 35°29' E 139°39'0 0.0
2017-Nov-19 23:01N 35°29' E 139°39'0 0.0
2017-Nov-19 22:31N 35°29' E 139°39'0 0.0
2017-Nov-19 22:00N 35°29' E 139°39'0 0.0
2017-Nov-19 21:31N 35°29' E 139°39'0 0.0
2017-Nov-19 21:01N 35°29' E 139°39'0 0.0
2017-Nov-19 20:30N 35°29' E 139°39'0 0.0
2017-Nov-19 20:01N 35°29' E 139°39'0 0.0
2017-Nov-19 19:30N 35°29' E 139°39'0 0.0
2017-Nov-19 19:01N 35°29' E 139°39'0 0.0
2017-Nov-19 18:31N 35°29' E 139°39'0 0.0
2017-Nov-19 18:01N 35°29' E 139°39'0 0.0
2017-Nov-19 17:31N 35°29' E 139°39'0 0.0
2017-Nov-19 17:01N 35°29' E 139°39'0 0.0
2017-Nov-19 16:31N 35°29' E 139°39'0 0.0
2017-Nov-19 16:00N 35°29' E 139°39'0 0.0
2017-Nov-19 15:31N 35°29' E 139°39'0 0.0
2017-Nov-19 15:01N 35°29' E 139°39'0 0.0
2017-Nov-19 14:31N 35°29' E 139°39'0 0.0
2017-Nov-19 14:01N 35°29' E 139°39'0 0.0
2017-Nov-19 13:30N 35°29' E 139°39'0 0.0
2017-Nov-19 13:00N 35°29' E 139°39'0 0.0
2017-Nov-19 12:30N 35°29' E 139°39'0 0.0
2017-Nov-19 12:01N 35°29' E 139°39'0 0.0
2017-Nov-19 11:31N 35°29' E 139°39'0 0.0
2017-Nov-19 11:01N 35°29' E 139°39'0 0.0
2017-Nov-19 10:31N 35°29' E 139°39'0 0.0
2017-Nov-19 10:01N 35°29' E 139°39'0 0.0
2017-Nov-19 09:30N 35°29' E 139°39'0 0.0
2017-Nov-19 09:00N 35°29' E 139°39'0 0.0
2017-Nov-19 08:31N 35°29' E 139°39'0 0.0
2017-Nov-19 08:01N 35°29' E 139°39'0 0.0
2017-Nov-19 07:31N 35°29' E 139°39'0 0.0
2017-Nov-19 07:00N 35°29' E 139°39'0 0.0
2017-Nov-19 06:31N 35°29' E 139°39'0 0.0
2017-Nov-19 06:01N 35°29' E 139°39'0 0.0
2017-Nov-19 05:30N 35°29' E 139°39'0 0.0
2017-Nov-19 05:01N 35°29' E 139°39'0 0.0
2017-Nov-19 04:30N 35°29' E 139°39'0 0.0
2017-Nov-19 04:01N 35°29' E 139°39'0 0.0
2017-Nov-19 03:30N 35°29' E 139°39'0 0.0
2017-Nov-19 03:00N 35°29' E 139°39'0 0.0
2017-Nov-19 02:30N 35°29' E 139°39'0 0.0
2017-Nov-19 02:00N 35°29' E 139°39'0 0.0
2017-Nov-19 01:30N 35°29' E 139°39'0 0.0
2017-Nov-19 01:00N 35°29' E 139°39'0 0.0
2017-Nov-19 00:30N 35°29' E 139°39'0 0.0
2017-Nov-19 00:01N 35°29' E 139°39'0 0.0
2017-Nov-18 23:31N 35°29' E 139°39'0 0.0
2017-Nov-18 23:01N 35°29' E 139°39'0 0.0
2017-Nov-18 22:31N 35°29' E 139°39'0 0.0
2017-Nov-18 22:00N 35°29' E 139°39'0 0.0
2017-Nov-18 21:30N 35°29' E 139°39'0 0.0
2017-Nov-18 21:00N 35°29' E 139°39'0 0.0
2017-Nov-18 20:30N 35°29' E 139°39'0 0.0
2017-Nov-18 20:01N 35°29' E 139°39'0 0.0
2017-Nov-18 19:31N 35°29' E 139°39'0 0.0
2017-Nov-18 19:01N 35°29' E 139°39'0 0.0
2017-Nov-18 18:31N 35°29' E 139°39'0 0.0
2017-Nov-18 18:01N 35°29' E 139°39'0 0.0
2017-Nov-18 17:30N 35°29' E 139°39'0 0.0
2017-Nov-18 17:00N 35°29' E 139°39'0 0.0
2017-Nov-18 16:30N 35°29' E 139°39'0 0.0
2017-Nov-18 16:01N 35°29' E 139°39'0 0.0
2017-Nov-18 15:31N 35°29' E 139°39'0 0.0
2017-Nov-18 15:01N 35°29' E 139°39'0 0.0
2017-Nov-18 14:31N 35°29' E 139°39'0 0.0
2017-Nov-18 14:00N 35°29' E 139°39'0 0.0
2017-Nov-18 13:30N 35°29' E 139°39'0 0.0
2017-Nov-18 13:01N 35°29' E 139°39'0 0.0
2017-Nov-18 12:30N 35°29' E 139°39'0 0.0
2017-Nov-18 12:00N 35°29' E 139°39'0 0.0
2017-Nov-18 11:30N 35°29' E 139°39'0 0.0
2017-Nov-18 11:00N 35°29' E 139°39'0 0.0
2017-Nov-18 10:31N 35°29' E 139°39'0 0.0
2017-Nov-18 10:01N 35°29' E 139°39'0 0.0
2017-Nov-18 09:31N 35°29' E 139°39'0 0.0
2017-Nov-18 09:01N 35°29' E 139°39'0 0.0
2017-Nov-18 08:31N 35°29' E 139°39'0 0.0
2017-Nov-18 08:01N 35°29' E 139°39'0 0.0
2017-Nov-18 07:31N 35°29' E 139°39'0 0.0
2017-Nov-18 07:01N 35°29' E 139°39'0 0.0
2017-Nov-18 06:31N 35°29' E 139°39'0 0.0
2017-Nov-18 06:01N 35°29' E 139°39'0 0.0
2017-Nov-18 05:31N 35°29' E 139°39'0 0.0
2017-Nov-18 05:00N 35°29' E 139°39'0 0.0
2017-Nov-18 04:31N 35°29' E 139°39'0 0.0
2017-Nov-18 04:00N 35°29' E 139°39'0 0.0
2017-Nov-18 03:31N 35°29' E 139°39'0 0.0
2017-Nov-18 03:01N 35°29' E 139°39'0 0.0
2017-Nov-18 02:30N 35°29' E 139°39'0 0.0
2017-Nov-18 02:01N 35°29' E 139°39'0 0.0
2017-Nov-18 01:31N 35°29' E 139°39'0 0.0
2017-Nov-18 01:00N 35°29' E 139°39'0 0.0
2017-Nov-18 00:31N 35°29' E 139°39'0 0.0
2017-Nov-18 00:01N 35°29' E 139°39'0 0.0
2017-Nov-17 23:31N 35°29' E 139°39'0 0.0
2017-Nov-17 23:01N 35°29' E 139°39'0 0.0
2017-Nov-17 22:31N 35°29' E 139°39'0 0.0
2017-Nov-17 22:00N 35°29' E 139°39'0 0.0
2017-Nov-17 21:30N 35°29' E 139°39'0 0.0
2017-Nov-17 21:01N 35°29' E 139°39'0 0.0
2017-Nov-17 20:31N 35°29' E 139°39'0 0.0
2017-Nov-17 20:00N 35°29' E 139°39'0 0.0
2017-Nov-17 19:30N 35°29' E 139°39'0 0.0
2017-Nov-17 19:01N 35°29' E 139°39'0 0.0
2017-Nov-17 18:30N 35°29' E 139°39'0 0.0
2017-Nov-17 18:00N 35°29' E 139°39'0 0.0
2017-Nov-17 17:30N 35°29' E 139°39'0 0.0
2017-Nov-17 17:01N 35°29' E 139°39'0 0.0
2017-Nov-17 16:31N 35°29' E 139°39'0 0.0
2017-Nov-17 16:00N 35°29' E 139°39'0 0.0
2017-Nov-17 15:30N 35°29' E 139°39'0 0.0
2017-Nov-17 15:01N 35°29' E 139°39'0 0.0
2017-Nov-17 14:31N 35°29' E 139°39'0 0.0
2017-Nov-17 14:00N 35°29' E 139°39'0 0.0
2017-Nov-17 13:31N 35°29' E 139°39'0 0.0
2017-Nov-17 13:00N 35°29' E 139°39'0 0.0
2017-Nov-17 12:30N 35°29' E 139°39'0 0.0
2017-Nov-17 12:01N 35°29' E 139°39'0 0.0
2017-Nov-17 11:30N 35°29' E 139°39'0 0.0
2017-Nov-17 11:00N 35°29' E 139°39'0 0.0
2017-Nov-17 10:30N 35°29' E 139°39'0 0.0
2017-Nov-17 10:00N 35°29' E 139°39'0 0.0
2017-Nov-17 09:31N 35°29' E 139°39'0 0.0
2017-Nov-17 09:01N 35°29' E 139°39'0 0.0
2017-Nov-17 08:30N 35°29' E 139°39'0 0.0
2017-Nov-17 08:00N 35°29' E 139°39'0 0.0
2017-Nov-17 07:31N 35°29' E 139°39'0 0.0
2017-Nov-17 07:00N 35°29' E 139°39'0 0.0
2017-Nov-17 06:31N 35°29' E 139°39'0 0.0
2017-Nov-17 06:00N 35°29' E 139°39'0 0.0
2017-Nov-17 05:30N 35°29' E 139°39'0 0.0
2017-Nov-17 05:01N 35°29' E 139°39'0 0.0
2017-Nov-17 04:30N 35°29' E 139°39'0 0.0
2017-Nov-17 04:01N 35°29' E 139°39'0 0.0
2017-Nov-17 03:31N 35°29' E 139°39'0 0.0
2017-Nov-17 03:01N 35°29' E 139°39'0 0.0
2017-Nov-17 02:30N 35°29' E 139°39'0 0.0
2017-Nov-17 02:01N 35°29' E 139°39'0 0.0
2017-Nov-17 01:31N 35°29' E 139°39'0 0.0
2017-Nov-17 01:01N 35°29' E 139°39'0 0.0
2017-Nov-17 00:31N 35°29' E 139°39'0 0.0
2017-Nov-17 00:00N 35°29' E 139°39'0 0.0
2017-Nov-16 23:31N 35°29' E 139°39'0 0.0
2017-Nov-16 23:00N 35°29' E 139°39'0 0.0
2017-Nov-16 22:31N 35°29' E 139°39'0 0.0
2017-Nov-16 22:01N 35°29' E 139°39'0 0.0
2017-Nov-16 21:30N 35°29' E 139°39'0 0.0
2017-Nov-16 21:00N 35°29' E 139°39'0 0.0
2017-Nov-16 20:31N 35°29' E 139°39'0 0.0
2017-Nov-16 20:00N 35°29' E 139°39'0 0.0
2017-Nov-16 19:30N 35°29' E 139°39'0 0.0
2017-Nov-16 19:00N 35°29' E 139°39'0 0.0
2017-Nov-16 18:31N 35°29' E 139°39'0 0.0
2017-Nov-16 18:01N 35°29' E 139°39'0 0.0
2017-Nov-16 17:31N 35°29' E 139°39'0 0.0
2017-Nov-16 17:01N 35°29' E 139°39'0 0.0
2017-Nov-16 16:31N 35°29' E 139°39'0 0.0
2017-Nov-16 16:00N 35°29' E 139°39'0 0.0
2017-Nov-16 15:31N 35°29' E 139°39'0 0.0
2017-Nov-16 15:01N 35°29' E 139°39'0 0.0
2017-Nov-16 14:30N 35°29' E 139°39'0 0.0
2017-Nov-16 14:01N 35°29' E 139°39'0 0.0
2017-Nov-16 13:31N 35°29' E 139°39'0 0.0
2017-Nov-16 13:01N 35°29' E 139°39'0 0.0
2017-Nov-16 12:30N 35°29' E 139°39'0 0.0
2017-Nov-16 12:00N 35°29' E 139°39'0 0.0
2017-Nov-16 11:31N 35°29' E 139°39'0 0.0
2017-Nov-16 11:01N 35°29' E 139°39'0 0.0
2017-Nov-16 10:30N 35°29' E 139°39'0 0.0
2017-Nov-16 10:01N 35°29' E 139°39'0 0.0
2017-Nov-16 09:30N 35°29' E 139°39'0 0.0
2017-Nov-16 09:01N 35°29' E 139°39'0 0.0
2017-Nov-16 08:30N 35°29' E 139°39'0 0.0
2017-Nov-16 08:00N 35°29' E 139°39'0 0.0
2017-Nov-16 07:30N 35°29' E 139°39'0 0.0
2017-Nov-16 07:01N 35°29' E 139°39'0 0.0
2017-Nov-16 06:30N 35°29' E 139°39'0 0.0
2017-Nov-16 06:01N 35°29' E 139°39'0 0.0
2017-Nov-16 05:30N 35°29' E 139°39'0 0.0
2017-Nov-16 05:00N 35°29' E 139°39'0 0.0
2017-Nov-16 04:30N 35°29' E 139°39'0 0.0
2017-Nov-16 04:01N 35°29' E 139°39'0 0.0
2017-Nov-16 03:31N 35°29' E 139°39'0 0.0
2017-Nov-16 03:00N 35°29' E 139°39'0 0.0
2017-Nov-16 02:31N 35°29' E 139°39'0 0.0
2017-Nov-16 02:01N 35°29' E 139°39'0 0.0
2017-Nov-16 01:31N 35°29' E 139°39'0 0.0
2017-Nov-16 01:00N 35°29' E 139°39'0 0.0
2017-Nov-16 00:31N 35°29' E 139°39'0 0.0
2017-Nov-16 00:01N 35°29' E 139°39'0 0.0
2017-Nov-15 23:30N 35°29' E 139°39'0 0.0
2017-Nov-15 23:01N 35°29' E 139°39'0 0.0
2017-Nov-15 22:30N 35°29' E 139°39'0 0.0
2017-Nov-15 22:01N 35°29' E 139°39'0 0.0
2017-Nov-15 21:31N 35°29' E 139°39'0 0.0
2017-Nov-15 21:01N 35°29' E 139°39'0 0.0
2017-Nov-15 20:31N 35°29' E 139°39'0 0.0
2017-Nov-15 20:01N 35°29' E 139°39'0 0.0
2017-Nov-15 19:30N 35°29' E 139°39'0 0.0
2017-Nov-15 19:01N 35°29' E 139°39'0 0.0
2017-Nov-15 18:31N 35°29' E 139°39'0 0.0
2017-Nov-15 18:01N 35°29' E 139°39'0 0.0
2017-Nov-15 17:30N 35°29' E 139°39'0 0.0
2017-Nov-15 17:01N 35°29' E 139°39'0 0.0
2017-Nov-15 16:31N 35°29' E 139°39'0 0.0
2017-Nov-15 16:00N 35°29' E 139°39'0 0.0
2017-Nov-15 15:31N 35°29' E 139°39'0 0.0
2017-Nov-15 15:00N 35°29' E 139°39'0 0.0
2017-Nov-15 14:31N 35°29' E 139°39'0 0.0
2017-Nov-15 14:00N 35°29' E 139°39'0 0.0
2017-Nov-15 13:31N 35°29' E 139°39'0 0.0
2017-Nov-15 13:01N 35°29' E 139°39'0 0.0
2017-Nov-15 12:31N 35°29' E 139°39'0 0.0
2017-Nov-15 12:01N 35°29' E 139°39'0 0.0
2017-Nov-15 11:30N 35°29' E 139°39'0 0.0
2017-Nov-15 11:00N 35°29' E 139°39'0 0.0
2017-Nov-15 10:30N 35°29' E 139°39'0 0.0
2017-Nov-15 10:00N 35°29' E 139°39'0 0.0
2017-Nov-15 09:31N 35°29' E 139°39'0 0.0
2017-Nov-15 09:01N 35°29' E 139°39'0 0.0
2017-Nov-15 08:31N 35°29' E 139°39'0 0.0
2017-Nov-15 08:00N 35°29' E 139°39'0 0.0
2017-Nov-15 07:30N 35°29' E 139°39'0 0.0
2017-Nov-15 07:01N 35°29' E 139°39'0 0.0
2017-Nov-15 06:31N 35°29' E 139°39'0 0.0
2017-Nov-15 06:01N 35°29' E 139°39'0 0.0
2017-Nov-15 05:31N 35°29' E 139°39'0 0.0
2017-Nov-15 05:01N 35°29' E 139°39'0 0.0
2017-Nov-15 04:30N 35°29' E 139°39'0 0.0
2017-Nov-15 04:01N 35°29' E 139°39'0 0.0
2017-Nov-15 03:31N 35°29' E 139°39'0 0.0
2017-Nov-15 03:00N 35°29' E 139°39'0 0.0
2017-Nov-15 02:30N 35°29' E 139°39'0 0.0
2017-Nov-15 02:00N 35°29' E 139°39'0 0.0
2017-Nov-15 01:31N 35°29' E 139°39'0 0.0
2017-Nov-15 01:01N 35°29' E 139°39'0 0.0
2017-Nov-15 00:31N 35°29' E 139°39'0 0.0
2017-Nov-15 00:01N 35°29' E 139°39'  

Dump ship's entire track history